Leonard, ND

11:37 PM CDT on July 31, 2014 (GMT -0500)
RAWS SHEYENNE ND US (MSNGN8) Elev 1069 ft | 46.47 °N, 97.32 °W | Change Station

Current weather conditions updated 48 minutes ago

Clear
Clear
62 °F
Feels Like 62 °F
N
3
Wind Variable Wind from ESE
Gusts 7.0 mph

Tomorrow is forecast to be nearly the same temperature as today.

Today
High -- | Low -- °F
--% Chance of Precip.
Yesterday
High -- | Low -- °F
Precip. -- in
6:08 AM 9:01 PM
Waxing Crescent, 23% visible
Pressure 30.00 in
Visibility 9.0 miles
Clouds Clear
Dew Point 60 °F
Humidity 92%
Rainfall 0.00 in
Snow Depth Not available.
UV 0 out of 12
Pollen 8.10 out of 12
Air Quality Not available.
Flu Activity Not available.
METAR KFAR 010353Z 00000KT 9SM CLR 21/17 A3000 RMK AO2 SLP157 T02060167

More Conditions Fewer Conditions

Pressure 30.00 in
Visibility 9.0 miles
Clouds Clear
Dew Point 60 °F
Humidity 92%
Rainfall 0.00 in
Snow Depth Not available.
UV 0 out of 12
Pollen 8.10 out of 12
Air Quality Not available.
Flu Activity Not available.
METAR KFAR 010353Z 00000KT 9SM CLR 21/17 A3000 RMK AO2 SLP157 T02060167

More Conditions Fewer Conditions

10-Day Weather Forecast

Almanac

Astronomy

Jul. 31, 2014 Rise Set
Actual Time 6:08 AM CDT 9:01 PM CDT
Civil Twilight 5:32 AM CDT 9:36 PM CDT
Nautical Twilight 4:47 AM CDT 10:21 PM CDT
Astronomical Twilight 3:53 AM CDT 11:15 PM CDT
Moon 10:56 AM CDT (7/31) 10:54 PM CDT (7/31)
Length of Visible Light 16h 03m
Length of Day
14h 53m
Tomorrow will be 2m 32s shorter.
Waxing Crescent, 23% of the Moon is Illuminated
Aug 1
Waxing Crescent
Aug 3
First Quarter
Aug 10
Full
Aug 17
Last Quarter
Aug 25
New

Today's Extremes

State Highs State Lows

Community

WunderPhotos

Upload Photos

1,739,510 photos uploaded!

Nearby

Snow Depth

Station Depth Elevation
No new snow has been reported.

Earthquake Activity

City Distance Mag. Time & Date
No recent earthquake activity has been reported nearby.
Minimum magnitude displayed is 2.5.

Coastal Water Temperatures

Place Temperature
No Stations Reporting

Nearby Weather Stations

Station Location Temp. Heat Index Dew Point Humidity Wind Precip. Elev Updated Type
RAWS SHEYENNE ND, Sheldon, ND 62 °F - 60 °F 92% ESE  at  3 mph 0.00 in / hr 1069 ft 10:49 PM CDT MADIS
West Fargo Official, West Fargo, ND 67.5 °F - 60 °F 77% SE  at  2.7 mph - / hr 900 ft 11:36 PM CDT Normal
Westport Beach, West Fargo, ND 68.0 °F - 61 °F 79% SSW  at  3.2 mph - / hr 896 ft 11:35 PM CDT Normal
South Fargo, Fargo, ND 69.1 °F - 56 °F 64% SE  at  0.0 mph 0.00 in / hr 902 ft 11:34 PM CDT Normal
Home of the Absaraka Crows, Absaraka, ND 68.9 °F - 57 °F 65% NW  at  1.6 mph 0.00 in / hr 1066 ft 11:37 PM CDT Rapid Fire
Fargo, ND 70.7 °F 74 °F 60 °F 68% North  at  0.0 mph 0.00 in / hr 901 ft 11:37 PM CDT Rapid Fire

Show More Stations Show Fewer Stations